createdAt,value
2016-05-02T00:00:46.446Z,1002.39
2016-05-02T00:01:46.433Z,1002.36
2016-05-02T00:02:46.421Z,1002.42
2016-05-02T00:03:46.455Z,1002.4
2016-05-02T00:04:46.441Z,1002.39
2016-05-02T00:05:46.444Z,1002.44
2016-05-02T00:06:46.432Z,1002.44
2016-05-02T00:07:46.434Z,1002.4
2016-05-02T00:08:46.609Z,1002.38
2016-05-02T00:09:46.440Z,1002.38
2016-05-02T00:10:46.442Z,1002.39
2016-05-02T00:11:46.445Z,1002.36
2016-05-02T00:12:46.448Z,1002.35
2016-05-02T00:13:46.450Z,1002.32
2016-05-02T00:14:46.452Z,1002.35
2016-05-02T00:15:46.456Z,1002.32
2016-05-02T00:17:46.461Z,1002.35
2016-05-02T00:18:46.448Z,1002.34
2016-05-02T00:19:46.481Z,1002.38
2016-05-02T00:20:46.453Z,1002.41
2016-05-02T00:21:46.455Z,1002.39
2016-05-02T00:22:46.459Z,1002.37
2016-05-02T00:23:46.461Z,1002.39
2016-05-02T00:24:46.464Z,1002.36
2016-05-02T00:25:46.498Z,1002.37
2016-05-02T00:26:46.485Z,1002.42
2016-05-02T00:27:46.674Z,1002.4
2016-05-02T00:28:46.490Z,1002.41
2016-05-02T00:29:46.478Z,1002.43
2016-05-02T00:30:46.480Z,1002.39
2016-05-02T00:31:46.483Z,1002.4
2016-05-02T00:32:46.469Z,1002.42
2016-05-02T00:33:46.504Z,1002.42
2016-05-02T00:34:46.490Z,1002.43
2016-05-02T00:35:46.477Z,1002.42
2016-05-02T00:36:46.512Z,1002.39
2016-05-02T00:37:46.483Z,1002.4
2016-05-02T00:38:46.485Z,1002.46
2016-05-02T00:39:46.488Z,1002.49
2016-05-02T00:40:46.490Z,1002.48
2016-05-02T00:41:46.494Z,1002.52
2016-05-02T00:42:46.496Z,1002.5
2016-05-02T00:43:46.499Z,1002.49
2016-05-02T00:44:46.501Z,1002.53
2016-05-02T00:45:46.504Z,1002.55
2016-05-02T00:46:46.492Z,1002.51
2016-05-02T00:47:46.494Z,1002.5
2016-05-02T00:48:46.512Z,1002.51
2016-05-02T00:49:46.515Z,1002.51
2016-05-02T00:50:46.503Z,1002.51
2016-05-02T00:51:46.505Z,1002.54
2016-05-02T00:52:46.508Z,1002.53
2016-05-02T00:53:46.511Z,1002.5
2016-05-02T00:54:46.513Z,1002.5
2016-05-02T00:55:46.531Z,1002.47
2016-05-02T00:56:46.519Z,1002.49
2016-05-02T00:57:46.536Z,1002.5
2016-05-02T00:58:46.727Z,1002.5
2016-05-02T01:00:46.529Z,1002.48
2016-05-02T01:01:46.532Z,1002.5
2016-05-02T01:02:46.544Z,1002.53
2016-05-02T01:03:46.591Z,1002.53
2016-05-02T01:04:46.638Z,1002.52
2016-05-02T01:05:46.685Z,1002.57
2016-05-02T01:06:46.965Z,1002.6
2016-05-02T01:07:46.772Z,1002.57
2016-05-02T01:08:46.775Z,1002.54
2016-05-02T01:09:46.794Z,1002.51
2016-05-02T01:10:46.813Z,1002.51
2016-05-02T01:11:46.848Z,1002.48
2016-05-02T01:12:46.849Z,1002.48
2016-05-02T01:13:46.857Z,1002.5
2016-05-02T01:14:46.865Z,1002.44
2016-05-02T01:15:46.890Z,1002.48
2016-05-02T01:16:46.883Z,1002.49
2016-05-02T01:17:46.890Z,1002.5
2016-05-02T01:18:46.895Z,1002.47
2016-05-02T01:19:46.899Z,1002.47
2016-05-02T01:20:46.920Z,1002.49
2016-05-02T01:21:46.893Z,1002.49
2016-05-02T01:22:46.898Z,1002.45
2016-05-02T01:23:46.916Z,1002.48
2016-05-02T01:24:46.920Z,1002.49
2016-05-02T01:25:46.909Z,1002.5
2016-05-02T01:26:46.911Z,1002.51
2016-05-02T01:27:46.915Z,1002.52
2016-05-02T01:28:46.918Z,1002.51
2016-05-02T01:29:46.921Z,1002.49
2016-05-02T01:30:46.924Z,1002.48
2016-05-02T01:31:46.928Z,1002.49
2016-05-02T01:32:46.930Z,1002.49
2016-05-02T01:33:46.933Z,1002.47
2016-05-02T01:34:46.951Z,1002.47
2016-05-02T01:35:46.922Z,1002.48
2016-05-02T01:36:46.925Z,1002.45
2016-05-02T01:37:46.928Z,1002.47
2016-05-02T01:38:46.931Z,1002.45
2016-05-02T01:39:46.933Z,1002.51
2016-05-02T01:40:46.920Z,1002.45
2016-05-02T01:41:46.922Z,1002.43
2016-05-02T01:42:46.957Z,1002.45
2016-05-02T01:43:46.928Z,1002.45
2016-05-02T01:44:46.931Z,1002.46
2016-05-02T01:45:46.933Z,1002.42
2016-05-02T01:46:46.936Z,1002.42
2016-05-02T01:47:46.939Z,1002.48
2016-05-02T01:48:46.941Z,1002.42
2016-05-02T01:49:46.944Z,1002.41
2016-05-02T01:50:46.947Z,1002.44
2016-05-02T01:51:46.966Z,1002.48
2016-05-02T01:52:46.937Z,1002.44
2016-05-02T01:53:46.940Z,1002.44
2016-05-02T01:54:46.942Z,1002.49
2016-05-02T01:55:46.945Z,1002.51
2016-05-02T01:56:46.963Z,1002.46
2016-05-02T01:57:46.951Z,1002.53
2016-05-02T01:58:46.953Z,1002.44
2016-05-02T01:59:46.956Z,1002.47
2016-05-02T02:00:46.974Z,1002.46
2016-05-02T02:01:46.961Z,1002.49
2016-05-02T02:02:46.948Z,1002.42
2016-05-02T02:03:46.951Z,1002.42
2016-05-02T02:04:46.953Z,1002.42
2016-05-02T02:05:47.425Z,1002.45
2016-05-02T02:06:46.975Z,1002.43
2016-05-02T02:07:46.961Z,1002.42
2016-05-02T02:08:46.980Z,1002.43
2016-05-02T02:09:46.998Z,1002.42
2016-05-02T02:10:46.969Z,1002.42
2016-05-02T02:11:46.972Z,1002.44
2016-05-02T02:12:46.975Z,1002.41
2016-05-02T02:13:46.962Z,1002.43
2016-05-02T02:14:46.964Z,1002.42
2016-05-02T02:15:46.983Z,1002.43
2016-05-02T02:16:46.969Z,1002.44
2016-05-02T02:17:46.988Z,1002.47
2016-05-02T02:18:46.991Z,1002.47
2016-05-02T02:19:47.010Z,1002.46
2016-05-02T02:20:46.980Z,1002.44
2016-05-02T02:21:47.187Z,1002.44
2016-05-02T02:22:47.018Z,1002.43
2016-05-02T02:23:46.985Z,1002.42
2016-05-02T02:24:46.992Z,1002.43
2016-05-02T02:25:47.015Z,1002.45
2016-05-02T02:26:46.992Z,1002.4
2016-05-02T02:27:47.026Z,1002.42
2016-05-02T02:28:47.013Z,1002.43
2016-05-02T02:29:47.000Z,1002.46
2016-05-02T02:30:47.003Z,1002.46
2016-05-02T02:31:47.006Z,1002.48
2016-05-02T02:32:46.993Z,1002.51
2016-05-02T02:33:46.995Z,1002.44
2016-05-02T02:34:46.998Z,1002.46
2016-05-02T02:35:47.484Z,1002.42
2016-05-02T02:36:47.034Z,1002.44
2016-05-02T02:37:47.209Z,1002.46
2016-05-02T02:38:47.024Z,1002.46
2016-05-02T02:39:47.011Z,1002.45
2016-05-02T02:40:47.014Z,1002.47
2016-05-02T02:41:47.220Z,1002.49
2016-05-02T02:42:47.019Z,1002.47
2016-05-02T02:43:47.022Z,1002.47
2016-05-02T02:44:47.024Z,1002.46
2016-05-02T02:45:47.027Z,1002.43
2016-05-02T02:46:47.030Z,1002.44
2016-05-02T02:47:47.033Z,1002.42
2016-05-02T02:48:47.035Z,1002.45
2016-05-02T02:49:47.038Z,1002.45
2016-05-02T02:50:47.025Z,1002.42
2016-05-02T02:51:47.028Z,1002.46
2016-05-02T02:52:47.062Z,1002.43
2016-05-02T02:53:47.033Z,1002.45
2016-05-02T02:54:47.036Z,1002.41
2016-05-02T02:55:47.038Z,1002.43
2016-05-02T02:56:47.041Z,1002.44
2016-05-02T02:57:47.059Z,1002.45
2016-05-02T02:58:47.046Z,1002.45
2016-05-02T02:59:47.050Z,1002.46
2016-05-02T03:00:47.052Z,1002.49
2016-05-02T03:01:47.054Z,1002.5
2016-05-02T03:02:47.057Z,1002.47
2016-05-02T03:03:47.045Z,1002.48
2016-05-02T03:04:47.282Z,1002.46
2016-05-02T03:05:47.051Z,1002.48
2016-05-02T03:06:47.084Z,1002.46
2016-05-02T03:07:47.290Z,1002.47
2016-05-02T03:09:47.061Z,1002.45
2016-05-02T03:10:47.064Z,1002.43
2016-05-02T03:11:47.067Z,1002.37
2016-05-02T03:12:47.070Z,1002.4
2016-05-02T03:13:47.072Z,1002.36
2016-05-02T03:14:47.074Z,1002.33
2016-05-02T03:15:47.077Z,1002.34
2016-05-02T03:16:47.095Z,1002.31
2016-05-02T03:17:47.301Z,1002.35
2016-05-02T03:18:47.069Z,1002.37
2016-05-02T03:19:47.103Z,1002.35
2016-05-02T03:20:47.074Z,1002.37
2016-05-02T03:21:47.078Z,1002.33
2016-05-02T03:22:47.080Z,1002.38
2016-05-02T03:23:47.067Z,1002.37
2016-05-02T03:24:47.085Z,1002.39
2016-05-02T03:25:47.088Z,1002.42
2016-05-02T03:26:47.279Z,1002.44
2016-05-02T03:27:47.077Z,1002.49
2016-05-02T03:28:47.080Z,1002.44
2016-05-02T03:29:47.083Z,1002.45
2016-05-02T03:30:47.086Z,1002.47
2016-05-02T03:31:47.088Z,1002.41
2016-05-02T03:33:47.093Z,1002.38
2016-05-02T03:35:47.084Z,1002.38
2016-05-02T03:36:47.087Z,1002.34
2016-05-02T03:37:47.089Z,1002.37
2016-05-02T03:38:47.092Z,1002.37
2016-05-02T03:39:47.095Z,1002.46
2016-05-02T03:40:47.097Z,1002.49
2016-05-02T03:41:47.084Z,1002.47
2016-05-02T03:42:47.289Z,1002.49
2016-05-02T03:43:47.089Z,1002.48
2016-05-02T03:44:47.092Z,1002.52
2016-05-02T03:45:47.095Z,1002.48
2016-05-02T03:46:47.083Z,1002.45
2016-05-02T03:47:47.085Z,1002.49
2016-05-02T03:48:47.088Z,1002.5
2016-05-02T03:49:47.105Z,1002.54
2016-05-02T03:50:47.093Z,1002.52
2016-05-02T03:51:47.080Z,1002.49
2016-05-02T03:52:47.099Z,1002.5
2016-05-02T03:53:47.085Z,1002.47
2016-05-02T03:54:47.088Z,1002.44
2016-05-02T03:55:47.091Z,1002.48
2016-05-02T03:56:47.094Z,1002.48
2016-05-02T03:57:47.113Z,1002.49
2016-05-02T03:58:47.099Z,1002.5
2016-05-02T03:59:47.086Z,1002.48
2016-05-02T04:00:47.088Z,1002.49
2016-05-02T04:01:47.091Z,1002.5
2016-05-02T04:02:47.094Z,1002.47
2016-05-02T04:03:47.082Z,1002.43
2016-05-02T04:04:47.099Z,1002.46
2016-05-02T04:05:47.102Z,1002.45
2016-05-02T04:06:47.090Z,1002.51
2016-05-02T04:07:47.107Z,1002.52
2016-05-02T04:08:47.126Z,1002.5
2016-05-02T04:09:47.097Z,1002.5
2016-05-02T04:10:47.100Z,1002.52
2016-05-02T04:11:47.103Z,1002.53
2016-05-02T04:12:47.106Z,1002.57
2016-05-02T04:13:47.108Z,1002.61
2016-05-02T04:14:47.095Z,1002.62
2016-05-02T04:15:47.114Z,1002.6
2016-05-02T04:16:47.100Z,1002.56
2016-05-02T04:17:47.103Z,1002.56
2016-05-02T04:18:47.106Z,1002.61
2016-05-02T04:19:47.108Z,1002.62
2016-05-02T04:20:47.392Z,1002.59
2016-05-02T04:21:47.114Z,1002.64
2016-05-02T04:22:47.100Z,1002.61
2016-05-02T04:23:47.103Z,1002.61
2016-05-02T04:24:47.106Z,1002.64
2016-05-02T04:25:47.093Z,1002.62
2016-05-02T04:26:47.096Z,1002.63
2016-05-02T04:27:47.099Z,1002.65
2016-05-02T04:28:47.101Z,1002.68
2016-05-02T04:29:47.104Z,1002.7
2016-05-02T04:30:47.107Z,1002.7
2016-05-02T04:31:47.093Z,1002.7
2016-05-02T04:32:47.096Z,1002.72
2016-05-02T04:33:47.099Z,1002.77
2016-05-02T04:34:47.118Z,1002.73
2016-05-02T04:35:47.120Z,1002.75
2016-05-02T04:37:47.110Z,1002.77
2016-05-02T04:38:47.144Z,1002.76
2016-05-02T04:39:47.115Z,1002.76
2016-05-02T04:40:47.102Z,1002.77
2016-05-02T04:41:47.120Z,1002.78
2016-05-02T04:42:47.124Z,1002.78
2016-05-02T04:43:47.314Z,1002.79
2016-05-02T04:44:47.129Z,1002.8
2016-05-02T04:45:47.350Z,1002.82
2016-05-02T04:46:47.119Z,1002.82
2016-05-02T04:47:47.122Z,1002.84
2016-05-02T04:48:47.124Z,1002.87
2016-05-02T04:49:47.127Z,1002.79
2016-05-02T04:50:47.130Z,1002.81
2016-05-02T04:51:47.132Z,1002.86
2016-05-02T04:52:47.119Z,1002.8
2016-05-02T04:53:47.122Z,1002.86
2016-05-02T04:54:47.124Z,1002.84
2016-05-02T04:55:47.330Z,1002.81
2016-05-02T04:56:47.130Z,1002.86
2016-05-02T04:57:47.133Z,1002.83
2016-05-02T04:58:47.119Z,1002.83
2016-05-02T04:59:47.138Z,1002.83
2016-05-02T05:00:47.141Z,1002.83
2016-05-02T05:01:47.127Z,1002.82
2016-05-02T05:02:47.162Z,1002.83
2016-05-02T05:03:47.133Z,1002.82
2016-05-02T05:04:47.135Z,1002.81
2016-05-02T05:05:47.138Z,1002.82
2016-05-02T05:06:47.141Z,1002.81
2016-05-02T05:07:47.144Z,1002.85
2016-05-02T05:08:47.163Z,1002.85
2016-05-02T05:09:47.149Z,1002.83
2016-05-02T05:10:47.355Z,1002.83
2016-05-02T05:11:47.373Z,1002.82
2016-05-02T05:12:47.376Z,1002.86
2016-05-02T05:13:47.145Z,1002.86
2016-05-02T05:14:47.148Z,1002.89
2016-05-02T05:15:47.150Z,1002.86
2016-05-02T05:16:47.153Z,1002.88
2016-05-02T05:17:47.156Z,1002.87
2016-05-02T05:18:47.158Z,1002.85
2016-05-02T05:19:47.161Z,1002.89
2016-05-02T05:20:47.163Z,1002.88
2016-05-02T05:21:47.166Z,1002.85
2016-05-02T05:22:47.200Z,1002.88
2016-05-02T05:23:47.172Z,1002.88
2016-05-02T05:24:47.174Z,1002.88
2016-05-02T05:25:47.177Z,1002.89
2016-05-02T05:26:47.180Z,1002.86
2016-05-02T05:27:47.182Z,1002.91
2016-05-02T05:28:47.169Z,1002.88
2016-05-02T05:29:47.188Z,1002.93
2016-05-02T05:30:47.206Z,1002.91
2016-05-02T05:31:47.396Z,1002.92
2016-05-02T05:33:47.182Z,1002.92
2016-05-02T05:34:47.388Z,1002.9
2016-05-02T05:35:47.188Z,1002.89
2016-05-02T05:36:47.190Z,1002.88
2016-05-02T05:37:47.193Z,1002.91
2016-05-02T05:38:47.196Z,1002.93
2016-05-02T05:39:47.198Z,1002.92
2016-05-02T05:40:47.202Z,1002.88
2016-05-02T05:41:47.204Z,1002.91
2016-05-02T05:42:47.440Z,1002.94
2016-05-02T05:43:47.209Z,1002.96
2016-05-02T05:44:47.212Z,1002.95
2016-05-02T05:45:47.215Z,1002.97
2016-05-02T05:46:47.217Z,1002.99
2016-05-02T05:47:47.220Z,1002.98
2016-05-02T05:48:47.223Z,1002.98
2016-05-02T05:49:47.226Z,1002.99
2016-05-02T05:50:47.228Z,1003
2016-05-02T05:51:47.231Z,1002.98
2016-05-02T05:52:47.233Z,1003.06
2016-05-02T05:53:47.236Z,1002.99
2016-05-02T05:54:47.255Z,1003.04
2016-05-02T05:55:47.242Z,1003.01
2016-05-02T05:56:47.245Z,1003.05
2016-05-02T05:57:47.653Z,1003
2016-05-02T05:58:47.280Z,1003.02
2016-05-02T05:59:47.252Z,1003.03
2016-05-02T06:00:47.255Z,1003.03
2016-05-02T06:01:47.258Z,1003
2016-05-02T06:02:47.260Z,1003.03
2016-05-02T06:03:47.279Z,1003
2016-05-02T06:04:47.266Z,1002.99
2016-05-02T06:05:47.284Z,1002.98
2016-05-02T06:06:47.271Z,1003.03
2016-05-02T06:08:47.293Z,1002.98
2016-05-02T06:09:47.280Z,1003
2016-05-02T06:10:47.282Z,1002.97
2016-05-02T06:11:47.284Z,1003
2016-05-02T06:12:47.287Z,1002.98
2016-05-02T06:13:47.306Z,1002.96
2016-05-02T06:14:47.292Z,1002.98
2016-05-02T06:15:47.295Z,1003.01
2016-05-02T06:16:47.298Z,1002.97
2016-05-02T06:17:47.317Z,1002.98
2016-05-02T06:18:47.319Z,1003
2016-05-02T06:19:47.306Z,1003
2016-05-02T06:20:47.308Z,1003
2016-05-02T06:21:47.311Z,1002.97
2016-05-02T06:22:47.319Z,1002.94
2016-05-02T06:23:47.321Z,1002.96
2016-05-02T06:24:47.325Z,1002.97
2016-05-02T06:25:47.327Z,1002.95
2016-05-02T06:26:47.346Z,1002.96
2016-05-02T06:27:47.332Z,1002.94
2016-05-02T06:28:47.351Z,1002.96
2016-05-02T06:29:47.338Z,1002.95
2016-05-02T06:30:47.372Z,1002.97
2016-05-02T06:31:47.546Z,1002.98
2016-05-02T06:32:47.346Z,1002.97
2016-05-02T06:33:47.365Z,1002.98
2016-05-02T06:34:47.351Z,1003
2016-05-02T06:35:47.371Z,1002.99
2016-05-02T06:36:47.373Z,1002.97
2016-05-02T06:37:47.376Z,1002.98
2016-05-02T06:38:47.362Z,1002.97
2016-05-02T06:39:47.381Z,1002.96
2016-05-02T06:40:47.384Z,1002.96
2016-05-02T06:41:47.387Z,1003
2016-05-02T06:42:47.389Z,1003.01
2016-05-02T06:43:47.392Z,1003.01
2016-05-02T06:44:47.394Z,1003
2016-05-02T06:45:47.397Z,1003.02
2016-05-02T06:46:47.399Z,1003
2016-05-02T06:47:47.418Z,1002.99
2016-05-02T06:48:47.436Z,1002.95
2016-05-02T06:49:47.439Z,1002.99
2016-05-02T06:50:47.411Z,1002.97
2016-05-02T06:51:47.413Z,1002.96
2016-05-02T06:52:47.415Z,1002.97
2016-05-02T06:53:47.433Z,1002.97
2016-05-02T06:54:47.436Z,1003.01
2016-05-02T06:55:47.439Z,1002.99
2016-05-02T06:56:47.457Z,1002.98
2016-05-02T06:57:47.460Z,1002.99
2016-05-02T06:58:47.463Z,1002.96
2016-05-02T06:59:47.450Z,1002.96
2016-05-02T07:00:47.452Z,1003
2016-05-02T07:01:47.455Z,1003
2016-05-02T07:02:47.458Z,1003
2016-05-02T07:03:47.477Z,1002.97
2016-05-02T07:04:47.479Z,1003.02
2016-05-02T07:05:47.482Z,1003.01
2016-05-02T07:06:47.500Z,1003.04
2016-05-02T07:07:47.690Z,1003.03
2016-05-02T07:08:47.490Z,1003.04
2016-05-02T07:09:47.524Z,1002.99
2016-05-02T07:10:47.698Z,1002.99
2016-05-02T07:11:47.498Z,1003
2016-05-02T07:12:47.720Z,1002.95
2016-05-02T07:13:47.518Z,1002.98
2016-05-02T07:14:47.740Z,1002.94
2016-05-02T07:15:47.523Z,1002.94
2016-05-02T07:16:47.527Z,1002.93
2016-05-02T07:17:47.545Z,1002.89
2016-05-02T07:18:47.532Z,1002.85
2016-05-02T07:19:47.550Z,1002.91
2016-05-02T07:20:47.553Z,1002.82
2016-05-02T07:21:47.556Z,1002.86
2016-05-02T07:22:47.558Z,1002.84
2016-05-02T07:23:47.578Z,1002.86
2016-05-02T07:24:47.580Z,1002.83
2016-05-02T07:25:47.583Z,1002.81
2016-05-02T07:26:47.586Z,1002.83
2016-05-02T07:27:47.603Z,1002.82
2016-05-02T07:28:47.606Z,1002.82
2016-05-02T07:29:47.608Z,1002.78
2016-05-02T07:30:47.611Z,1002.79
2016-05-02T07:31:47.629Z,1002.73
2016-05-02T07:32:47.648Z,1002.78
2016-05-02T07:33:47.619Z,1002.74
2016-05-02T07:34:47.654Z,1002.75
2016-05-02T07:35:47.640Z,1002.71
2016-05-02T07:36:47.643Z,1002.69
2016-05-02T07:37:47.645Z,1002.65
2016-05-02T07:38:47.649Z,1002.72
2016-05-02T07:39:47.651Z,1002.67
2016-05-02T07:40:47.670Z,1002.67
2016-05-02T07:41:47.673Z,1002.66
2016-05-02T07:42:47.691Z,1002.64
2016-05-02T07:43:47.693Z,1002.63
2016-05-02T07:44:47.712Z,1002.63
2016-05-02T07:45:47.715Z,1002.61
2016-05-02T07:46:47.701Z,1002.61
2016-05-02T07:47:47.720Z,1002.59
2016-05-02T07:48:47.722Z,1002.54
2016-05-02T07:49:47.740Z,1002.56
2016-05-02T07:50:47.947Z,1002.56
2016-05-02T07:51:47.981Z,1002.55
2016-05-02T07:52:47.748Z,1002.5
2016-05-02T07:53:48.173Z,1002.53
2016-05-02T07:54:47.972Z,1002.53
2016-05-02T07:55:47.788Z,1002.53
2016-05-02T07:56:47.791Z,1002.55
2016-05-02T07:58:47.764Z,1002.5
2016-05-02T07:59:47.783Z,1002.52
2016-05-02T08:00:48.020Z,1002.46
2016-05-02T08:01:47.788Z,1002.45
2016-05-02T08:02:47.807Z,1002.45
2016-05-02T08:03:47.810Z,1002.43
2016-05-02T08:04:47.812Z,1002.43
2016-05-02T08:05:47.815Z,1002.45
2016-05-02T08:06:47.818Z,1002.44
2016-05-02T08:07:47.836Z,1002.43
2016-05-02T08:08:47.839Z,1002.44
2016-05-02T08:09:47.856Z,1002.43
2016-05-02T08:10:47.844Z,1002.4
2016-05-02T08:11:47.862Z,1002.39
2016-05-02T08:12:47.865Z,1002.44
2016-05-02T08:13:47.868Z,1002.38
2016-05-02T08:14:47.887Z,1002.36
2016-05-02T08:15:47.889Z,1002.36
2016-05-02T08:16:47.891Z,1002.35
2016-05-02T08:17:47.894Z,1002.36
2016-05-02T08:18:47.912Z,1002.38
2016-05-02T08:19:47.915Z,1002.39
2016-05-02T08:20:47.918Z,1002.34
2016-05-02T08:21:47.920Z,1002.33
2016-05-02T08:22:47.922Z,1002.36
2016-05-02T08:23:47.942Z,1002.37
2016-05-02T08:24:47.959Z,1002.36
2016-05-02T08:25:47.947Z,1002.36
2016-05-02T08:26:47.965Z,1002.28
2016-05-02T08:27:47.967Z,1002.26
2016-05-02T08:28:47.970Z,1002.26
2016-05-02T08:29:47.989Z,1002.27
2016-05-02T08:30:47.991Z,1002.27
2016-05-02T08:31:48.010Z,1002.29
2016-05-02T08:32:47.997Z,1002.27
2016-05-02T08:33:48.015Z,1002.26
2016-05-02T08:34:48.033Z,1002.33
2016-05-02T08:35:48.021Z,1002.4
2016-05-02T08:36:48.038Z,1002.4
2016-05-02T08:37:48.042Z,1002.38
2016-05-02T08:38:48.044Z,1002.31
2016-05-02T08:39:48.046Z,1002.37
2016-05-02T08:40:48.065Z,1002.37
2016-05-02T08:41:48.068Z,1002.4
2016-05-02T08:42:48.087Z,1002.38
2016-05-02T08:43:48.089Z,1002.44
2016-05-02T08:44:48.092Z,1002.48
2016-05-02T08:45:48.110Z,1002.57
2016-05-02T08:46:48.113Z,1002.59
2016-05-02T08:47:48.115Z,1002.56
2016-05-02T08:48:48.118Z,1002.5
2016-05-02T08:49:48.136Z,1002.45
2016-05-02T08:50:48.139Z,1002.42
2016-05-02T08:51:48.157Z,1002.43
2016-05-02T08:52:48.160Z,1002.38
2016-05-02T08:53:48.194Z,1002.32
2016-05-02T08:54:48.211Z,1002.31
2016-05-02T08:55:48.184Z,1002.36
2016-05-02T08:56:48.218Z,1002.34
2016-05-02T08:57:48.205Z,1002.28
2016-05-02T08:59:48.242Z,1002.29
2016-05-02T09:00:48.228Z,1002.22
2016-05-02T09:01:48.247Z,1002.23
2016-05-02T09:02:48.469Z,1002.23
2016-05-02T09:03:48.455Z,1002.27
2016-05-02T09:04:48.255Z,1002.22
2016-05-02T09:05:48.258Z,1002.23
2016-05-02T09:06:48.276Z,1002.2
2016-05-02T09:07:48.279Z,1002.18
2016-05-02T09:08:48.297Z,1002.18
2016-05-02T09:09:48.330Z,1002.2
2016-05-02T09:10:48.302Z,1002.21
2016-05-02T09:11:48.320Z,1002.22
2016-05-02T09:12:48.323Z,1002.2
2016-05-02T09:13:48.326Z,1002.29
2016-05-02T09:14:48.343Z,1002.38
2016-05-02T09:15:48.346Z,1002.41
2016-05-02T09:16:48.349Z,1002.36
2016-05-02T09:17:48.384Z,1002.36
2016-05-02T09:18:48.354Z,1002.32
2016-05-02T09:19:48.404Z,1002.32
2016-05-02T09:20:48.610Z,1002.23
2016-05-02T09:21:48.395Z,1002.33
2016-05-02T09:22:48.412Z,1002.26
2016-05-02T09:23:48.400Z,1002.25
2016-05-02T09:24:48.417Z,1002.19
2016-05-02T09:25:48.421Z,1002.2
2016-05-02T09:26:48.423Z,1002.2
2016-05-02T09:27:48.442Z,1002.22
2016-05-02T09:28:48.445Z,1002.24
2016-05-02T09:29:48.447Z,1002.23
2016-05-02T09:30:48.465Z,1002.19
2016-05-02T09:31:48.468Z,1002.16
2016-05-02T09:32:48.487Z,1002.17
2016-05-02T09:33:48.489Z,1002.21
2016-05-02T09:34:48.491Z,1002.21
2016-05-02T09:35:48.745Z,1002.17
2016-05-02T09:36:48.513Z,1002.16
2016-05-02T09:37:48.546Z,1002.14
2016-05-02T09:38:48.534Z,1002.11
2016-05-02T09:39:48.740Z,1002.2
2016-05-02T09:40:48.742Z,1002.09
2016-05-02T09:41:48.558Z,1002.12
2016-05-02T09:42:48.560Z,1002.15
2016-05-02T09:43:48.578Z,1002.16
2016-05-02T09:44:48.597Z,1002.19
2016-05-02T09:45:48.599Z,1002.24
2016-05-02T09:46:48.602Z,1002.25
2016-05-02T09:47:48.605Z,1002.29
2016-05-02T09:48:48.623Z,1002.33
2016-05-02T09:49:48.626Z,1002.21
2016-05-02T09:50:48.628Z,1002.19
2016-05-02T09:51:48.648Z,1002.23
2016-05-02T09:52:48.650Z,1002.25
2016-05-02T09:53:48.668Z,1002.32
2016-05-02T09:54:48.670Z,1002.32
2016-05-02T09:56:48.691Z,1002.11
2016-05-02T09:57:48.694Z,1002.16
2016-05-02T09:58:48.697Z,1002.14
2016-05-02T09:59:48.714Z,1002.05
2016-05-02T10:00:48.921Z,1002.04
2016-05-02T10:01:48.939Z,1002.04
2016-05-02T10:02:48.739Z,1002
2016-05-02T10:03:48.992Z,1002.04
2016-05-02T10:04:48.760Z,1002.03
2016-05-02T10:05:48.763Z,1002.06
2016-05-02T10:06:48.780Z,1002.11
2016-05-02T10:07:48.986Z,1002.22
2016-05-02T10:08:48.819Z,1002.24
2016-05-02T10:09:48.864Z,1002.07
2016-05-02T10:10:48.910Z,1002.04
2016-05-02T10:11:48.972Z,1002.11
2016-05-02T10:12:49.018Z,1002.09
2016-05-02T10:13:49.068Z,1002.18
2016-05-02T10:14:49.086Z,1002.13
2016-05-02T10:15:49.105Z,1002.08
2016-05-02T10:16:49.170Z,1002.02
2016-05-02T10:17:49.157Z,1001.99
2016-05-02T10:18:49.203Z,1002
2016-05-02T10:19:49.195Z,1002.04
2016-05-02T10:20:49.251Z,1002.06
2016-05-02T10:21:49.587Z,1002.11
2016-05-02T10:22:49.237Z,1002.24
2016-05-02T10:23:49.259Z,1002.34
2016-05-02T10:24:49.264Z,1002.26
2016-05-02T10:25:49.284Z,1002.34
2016-05-02T10:26:49.289Z,1002.34
2016-05-02T10:28:49.330Z,1002.28
2016-05-02T10:29:49.333Z,1002.23
2016-05-02T10:30:49.336Z,1002.23
2016-05-02T10:31:49.543Z,1002.28
2016-05-02T10:32:49.343Z,1002.24
2016-05-02T10:33:49.361Z,1002.33
2016-05-02T10:34:49.380Z,1002.21
2016-05-02T10:35:49.382Z,1002.22
2016-05-02T10:36:49.386Z,1002.16
2016-05-02T10:37:49.403Z,1002.08
2016-05-02T10:38:49.406Z,1002.12
2016-05-02T10:39:49.424Z,1002.13
2016-05-02T10:40:49.427Z,1002.17
2016-05-02T10:41:49.446Z,1002.15
2016-05-02T10:42:49.449Z,1002.2
2016-05-02T10:43:49.669Z,1002.19
2016-05-02T10:44:49.485Z,1002.13
2016-05-02T10:45:49.487Z,1002.12
2016-05-02T10:46:49.506Z,1002.18
2016-05-02T10:47:49.508Z,1002.24
2016-05-02T10:48:49.512Z,1002.28
2016-05-02T10:49:49.529Z,1002.3
2016-05-02T10:50:49.548Z,1002.24
2016-05-02T10:51:49.581Z,1002.17
2016-05-02T10:52:49.772Z,1002.11
2016-05-02T10:53:49.571Z,1002.09
2016-05-02T10:54:49.589Z,1002.04
2016-05-02T10:55:49.592Z,1002.01
2016-05-02T10:56:49.611Z,1002.05
2016-05-02T10:57:49.614Z,1002.03
2016-05-02T10:58:49.648Z,1002.11
2016-05-02T10:59:49.634Z,1002.1
2016-05-02T11:00:49.856Z,1002.18
2016-05-02T11:01:49.655Z,1002.24
2016-05-02T11:02:49.674Z,1002.18
2016-05-02T11:03:49.677Z,1002.12
2016-05-02T11:04:49.695Z,1002.1
2016-05-02T11:05:49.714Z,1002.14
2016-05-02T11:06:49.731Z,1002.11
2016-05-02T11:07:49.750Z,1002.16
2016-05-02T11:08:49.768Z,1002.08
2016-05-02T11:09:49.771Z,1002.02
2016-05-02T11:10:49.773Z,1002
2016-05-02T11:11:49.776Z,1002.04
2016-05-02T11:12:49.780Z,1002.12
2016-05-02T11:13:49.797Z,1002.16
2016-05-02T11:14:49.816Z,1002.15
2016-05-02T11:15:49.849Z,1002.21
2016-05-02T11:16:49.837Z,1002.24
2016-05-02T11:17:49.840Z,1002.21
2016-05-02T11:18:49.857Z,1002.24
2016-05-02T11:19:49.876Z,1002.23
2016-05-02T11:20:49.879Z,1002.05
2016-05-02T11:21:50.006Z,1002.23
2016-05-02T11:22:49.907Z,1002.26
2016-05-02T11:23:49.910Z,1002.2
2016-05-02T11:24:49.913Z,1002.21
2016-05-02T11:25:49.931Z,1002.19
2016-05-02T11:26:49.949Z,1002.14
2016-05-02T11:27:49.967Z,1002.14
2016-05-02T11:28:49.986Z,1002.02
2016-05-02T11:29:49.973Z,1002
2016-05-02T11:30:49.991Z,1002.09
2016-05-02T11:32:50.044Z,1002.11
2016-05-02T11:33:50.015Z,1002.08
2016-05-02T11:34:50.033Z,1002.08
2016-05-02T11:35:50.052Z,1002.14
2016-05-02T11:36:50.055Z,1002.05
2016-05-02T11:37:50.073Z,1002.07
2016-05-02T11:38:50.075Z,1002.09
2016-05-02T11:39:50.094Z,1002.01
2016-05-02T11:40:50.097Z,1001.99
2016-05-02T11:41:50.114Z,1001.93
2016-05-02T11:42:50.116Z,1001.89
2016-05-02T11:43:50.136Z,1001.95
2016-05-02T11:44:50.138Z,1001.99
2016-05-02T11:45:50.172Z,1001.99
2016-05-02T11:46:50.175Z,1002
2016-05-02T11:47:50.177Z,1001.94
2016-05-02T11:48:50.196Z,1001.92
2016-05-02T11:49:50.199Z,1001.92
2016-05-02T11:50:50.623Z,1001.89
2016-05-02T11:51:50.220Z,1001.92
2016-05-02T11:52:50.238Z,1001.88
2016-05-02T11:53:50.256Z,1001.85
2016-05-02T11:54:50.274Z,1001.9
2016-05-02T11:55:50.277Z,1001.91
2016-05-02T11:56:50.295Z,1001.88
2016-05-02T11:57:50.298Z,1001.96
2016-05-02T11:58:50.301Z,1001.92
2016-05-02T11:59:50.320Z,1001.91
2016-05-02T12:00:50.322Z,1001.87
2016-05-02T12:01:50.340Z,1001.88
2016-05-02T12:02:50.343Z,1001.83
2016-05-02T12:03:50.409Z,1001.8
2016-05-02T12:04:50.380Z,1001.8
2016-05-02T12:05:50.398Z,1001.83
2016-05-02T12:06:50.417Z,1001.85
2016-05-02T12:07:50.420Z,1001.82
2016-05-02T12:08:50.422Z,1001.84
2016-05-02T12:09:50.440Z,1001.82
2016-05-02T12:10:50.442Z,1001.86
2016-05-02T12:11:50.461Z,1001.88
2016-05-02T12:12:50.480Z,1001.83
2016-05-02T12:13:50.483Z,1001.76
2016-05-02T12:14:50.500Z,1001.74
2016-05-02T12:15:50.518Z,1001.74
2016-05-02T12:16:50.521Z,1001.65
2016-05-02T12:17:50.743Z,1001.67
2016-05-02T12:18:50.558Z,1001.71
2016-05-02T12:19:50.561Z,1001.7
2016-05-02T12:20:50.563Z,1001.63
2016-05-02T12:21:50.597Z,1001.64
2016-05-02T12:22:50.599Z,1001.65